Tuxedo Park, NY (10987)

12:27 AM EST on January 26, 2015 (GMT -0500)
KC2ASA - Sloatsburg, NY - Nakoma Brook | Change Station
CLOSE
Current Station
Personal Weather Station
Location: Sloatsburg, NY
Elevation: 367 ft
Nearby Weather Stations
Active Advisory: Blizzard Warning Active Notice: Record Report

Elev 367 ft 41.15 °N, 74.20 °W | Updated 5 seconds ago

Mostly Cloudy
Mostly Cloudy
22.4 °F
Feels Like 22 °F
N
3.0
Wind Variable Wind from NNE
Gusts 11.0 mph

Today
High -- | Low -- °F
--% Chance of Precip.
Yesterday
High -- | Low -- °F
Precip. -- in
7:13 AM 5:05 PM
Waxing Crescent, 39% visible
Pressure 30.02 in
Visibility 10.0 miles
Clouds Scattered Clouds 11000 ft
Windchill 22 °F
Dew Point 7 °F
Humidity 52%
Rainfall 0.00 in
Snow Depth Not available.
UV 0 out of 12
Pollen .10 out of 12
Air Quality Not available.
Flu Activity Not available.
METAR KSWF 260445Z 08010G15KT 10SM SCT110 M07/M15 A3002

More Conditions Fewer Conditions

Pressure 30.02 in
Visibility 10.0 miles
Clouds Scattered Clouds 11000 ft
Windchill 22 °F
Dew Point 7 °F
Humidity 52%
Rainfall 0.00 in
Snow Depth Not available.
UV 0 out of 12
Pollen .10 out of 12
Air Quality Not available.
Flu Activity Not available.
METAR KSWF 260445Z 08010G15KT 10SM SCT110 M07/M15 A3002

More Conditions Fewer Conditions

10-Day Weather Forecast

Almanac

Astronomy

Jan. 26, 2015 Rise Set
Actual Time
Civil Twilight
Nautical Twilight
Astronomical Twilight
Moon
Length of Visible Light
Length of Day
Tomorrow will be .
, % of the Moon is Illuminated

Today's Extremes

State Highs State Lows

Community

WunderPhotos

Upload Photos

1,790,152 photos uploaded!

WunderBlogs® & News

Nearby

Air Quality

  Air Quality AQ Index Pollutant
Not available.

Snow Depth

Station Depth Elevation

Earthquake Activity

City Distance Mag. Time & Date
Minimum magnitude displayed is 2.5.

Coastal Water Temperatures

Place Temperature

Nearby Weather Stations